Terminal Aerodrome Forecast
Issued by NWS

Home | Current Version | Previous Version | Text Only | Print | Product List | Glossary On
Versions: 1 2 3 4 5 6 7 8 9 10 11 12 13 14 15 16
598
FTUS44 KTSA 040537
TAFMLC
TAF
KMLC 040537Z 0406/0506 08004KT 3SM -RA BR SCT004 OVC007
      TEMPO 0406/0409 1SM BR BKN004 OVC007
     FM040900 08003KT 1SM -DZ BR OVC004
     FM041500 33003KT 3SM BR OVC007
     FM041800 35008KT P6SM OVC015
     FM042100 35004KT P6SM SKC=

USA.gov is the U.S. government's official web portal to all federal, state and local government web resources and services.